aviador You're here:

K14Y Decoded Metar

in MN, USA
Report Time2018-01-17 06:35:00
UTC Time2018-01-17 06:50:21
Flight Rules vfr VFR
Wind170° at 07 kt
W.Rank170° ranks 16
Current wind is below 170° avg. (7.8)
Visibility9999 m
Phenomena:N/A
Clouds:N/A
Expected CloudBase > 1,200 ft AGL from Temp-Dew spread
CeilingNone
Temp-17°C (ISA -29)
Dew Point-20°C (78% RH)
AAT-23.1°C
QNH1028 hPa
Density Alt-2,881 ft
Elevation1,332 ft
Report Wrong Elevation
Raw Report
METAR K14Y 170635Z AUTO 17007KT 10SM CLR M17/M20 A3037 RMK AO2=

Extra information for K14Y:More info

Metar Taf Metar & Taf Last 4 Metars F.Rules Stats Wind Profile Meteogram Temp Stats Metar ALERT Operation Metar Decoded Social comments

AIRNAV info for K14Y